sensor_id;sensor_type;location;lat;lon;timestamp;temperature;humidity
1578;DHT22;57623;53.608;10.004;2022-08-04T00:02:24;22.70;99.90
1578;DHT22;57623;53.608;10.004;2022-08-04T00:05:22;22.70;99.90
1578;DHT22;57623;53.608;10.004;2022-08-04T00:08:22;22.70;99.90
1578;DHT22;57623;53.608;10.004;2022-08-04T00:11:19;22.60;99.90
1578;DHT22;57623;53.608;10.004;2022-08-04T00:14:12;22.60;99.90
1578;DHT22;57623;53.608;10.004;2022-08-04T00:17:03;22.60;99.90
1578;DHT22;57623;53.608;10.004;2022-08-04T00:19:55;22.50;99.90
1578;DHT22;57623;53.608;10.004;2022-08-04T00:22:48;22.40;99.90
1578;DHT22;57623;53.608;10.004;2022-08-04T00:25:39;22.40;99.90
1578;DHT22;57623;53.608;10.004;2022-08-04T00:28:29;22.30;99.90
1578;DHT22;57623;53.608;10.004;2022-08-04T00:31:18;22.30;99.90
1578;DHT22;57623;53.608;10.004;2022-08-04T00:34:28;22.30;99.90
1578;DHT22;57623;53.608;10.004;2022-08-04T00:37:17;22.30;99.90
1578;DHT22;57623;53.608;10.004;2022-08-04T00:40:15;22.30;99.90
1578;DHT22;57623;53.608;10.004;2022-08-04T00:43:12;22.20;99.90
1578;DHT22;57623;53.608;10.004;2022-08-04T00:46:24;22.20;99.90
1578;DHT22;57623;53.608;10.004;2022-08-04T00:49:26;22.20;99.90
1578;DHT22;57623;53.608;10.004;2022-08-04T00:52:27;22.20;99.90
1578;DHT22;57623;53.608;10.004;2022-08-04T00:55:43;22.10;99.90
1578;DHT22;57623;53.608;10.004;2022-08-04T00:58:52;22.10;99.90
1578;DHT22;57623;53.608;10.004;2022-08-04T01:01:57;22.00;99.90
1578;DHT22;57623;53.608;10.004;2022-08-04T01:04:49;22.00;99.90
1578;DHT22;57623;53.608;10.004;2022-08-04T01:08:08;21.90;99.90
1578;DHT22;57623;53.608;10.004;2022-08-04T01:11:14;21.90;99.90
1578;DHT22;57623;53.608;10.004;2022-08-04T01:14:20;21.90;99.90
1578;DHT22;57623;53.608;10.004;2022-08-04T01:17:19;21.90;99.90
1578;DHT22;57623;53.608;10.004;2022-08-04T01:20:10;21.90;99.90
1578;DHT22;57623;53.608;10.004;2022-08-04T01:23:34;21.80;99.90
1578;DHT22;57623;53.608;10.004;2022-08-04T01:26:49;21.80;99.90
1578;DHT22;57623;53.608;10.004;2022-08-04T01:29:48;21.80;99.90
1578;DHT22;57623;53.608;10.004;2022-08-04T01:32:49;21.80;99.90
1578;DHT22;57623;53.608;10.004;2022-08-04T01:35:45;21.80;99.90
1578;DHT22;57623;53.608;10.004;2022-08-04T01:38:38;21.70;99.90
1578;DHT22;57623;53.608;10.004;2022-08-04T01:41:27;21.60;99.90
1578;DHT22;57623;53.608;10.004;2022-08-04T01:44:19;21.60;99.90
1578;DHT22;57623;53.608;10.004;2022-08-04T01:47:10;21.60;99.90
1578;DHT22;57623;53.608;10.004;2022-08-04T01:50:04;21.60;99.90
1578;DHT22;57623;53.608;10.004;2022-08-04T01:52:54;21.50;99.90
1578;DHT22;57623;53.608;10.004;2022-08-04T01:55:42;21.50;99.90
1578;DHT22;57623;53.608;10.004;2022-08-04T01:58:41;21.50;99.90
1578;DHT22;57623;53.608;10.004;2022-08-04T02:01:35;21.40;99.90
1578;DHT22;57623;53.608;10.004;2022-08-04T02:04:24;21.40;99.90
1578;DHT22;57623;53.608;10.004;2022-08-04T02:07:24;21.40;99.90
1578;DHT22;57623;53.608;10.004;2022-08-04T02:10:20;21.40;99.90
1578;DHT22;57623;53.608;10.004;2022-08-04T02:13:22;21.30;99.90
1578;DHT22;57623;53.608;10.004;2022-08-04T02:16:15;21.30;99.90
1578;DHT22;57623;53.608;10.004;2022-08-04T02:19:18;21.20;99.90
1578;DHT22;57623;53.608;10.004;2022-08-04T02:22:17;21.20;99.90
1578;DHT22;57623;53.608;10.004;2022-08-04T02:25:06;21.20;99.90
1578;DHT22;57623;53.608;10.004;2022-08-04T02:28:04;21.20;99.90
1578;DHT22;57623;53.608;10.004;2022-08-04T02:31:06;21.20;99.90
1578;DHT22;57623;53.608;10.004;2022-08-04T02:34:03;21.10;99.90
1578;DHT22;57623;53.608;10.004;2022-08-04T02:36:53;21.10;99.90
1578;DHT22;57623;53.608;10.004;2022-08-04T02:39:44;21.10;99.90
1578;DHT22;57623;53.608;10.004;2022-08-04T02:42:36;21.00;99.90
1578;DHT22;57623;53.608;10.004;2022-08-04T02:45:26;20.90;99.90
1578;DHT22;57623;53.608;10.004;2022-08-04T02:48:17;20.90;99.90
1578;DHT22;57623;53.608;10.004;2022-08-04T02:51:21;20.90;99.90
1578;DHT22;57623;53.608;10.004;2022-08-04T02:54:10;20.90;99.90
1578;DHT22;57623;53.608;10.004;2022-08-04T02:57:00;20.90;99.90
1578;DHT22;57623;53.608;10.004;2022-08-04T03:00:04;20.80;99.90
1578;DHT22;57623;53.608;10.004;2022-08-04T03:02:59;20.80;99.90
1578;DHT22;57623;53.608;10.004;2022-08-04T03:06:20;20.80;99.90
1578;DHT22;57623;53.608;10.004;2022-08-04T03:09:40;20.70;99.90
1578;DHT22;57623;53.608;10.004;2022-08-04T03:13:21;20.70;99.90
1578;DHT22;57623;53.608;10.004;2022-08-04T03:16:34;20.70;99.90
1578;DHT22;57623;53.608;10.004;2022-08-04T03:19:49;20.60;99.90
1578;DHT22;57623;53.608;10.004;2022-08-04T03:23:15;20.60;99.90
1578;DHT22;57623;53.608;10.004;2022-08-04T03:29:59;20.60;99.90
1578;DHT22;57623;53.608;10.004;2022-08-04T03:36:31;20.50;99.90
1578;DHT22;57623;53.608;10.004;2022-08-04T03:50:45;20.40;99.90
1578;DHT22;57623;53.608;10.004;2022-08-04T03:54:43;20.40;99.90
1578;DHT22;57623;53.608;10.004;2022-08-04T03:57:56;20.40;99.90
1578;DHT22;57623;53.608;10.004;2022-08-04T04:00:52;20.30;99.90
1578;DHT22;57623;53.608;10.004;2022-08-04T04:04:01;20.30;99.90
1578;DHT22;57623;53.608;10.004;2022-08-04T04:07:27;20.30;99.90
1578;DHT22;57623;53.608;10.004;2022-08-04T04:10:38;20.30;99.90
1578;DHT22;57623;53.608;10.004;2022-08-04T04:13:49;20.20;99.90
1578;DHT22;57623;53.608;10.004;2022-08-04T04:16:54;20.20;99.90
1578;DHT22;57623;53.608;10.004;2022-08-04T04:19:56;20.20;99.90
1578;DHT22;57623;53.608;10.004;2022-08-04T04:22:57;20.20;99.90
1578;DHT22;57623;53.608;10.004;2022-08-04T04:25:54;20.20;99.90
1578;DHT22;57623;53.608;10.004;2022-08-04T04:29:04;20.20;99.90
1578;DHT22;57623;53.608;10.004;2022-08-04T04:32:15;20.20;99.90
1578;DHT22;57623;53.608;10.004;2022-08-04T04:35:19;20.20;99.90
1578;DHT22;57623;53.608;10.004;2022-08-04T04:38:26;20.20;99.90
1578;DHT22;57623;53.608;10.004;2022-08-04T04:41:29;20.30;99.90
1578;DHT22;57623;53.608;10.004;2022-08-04T04:44:48;20.30;99.90
1578;DHT22;57623;53.608;10.004;2022-08-04T04:47:46;20.40;99.90
1578;DHT22;57623;53.608;10.004;2022-08-04T04:51:07;20.40;99.90
1578;DHT22;57623;53.608;10.004;2022-08-04T04:54:01;20.50;99.90
1578;DHT22;57623;53.608;10.004;2022-08-04T04:56:59;20.50;99.90
1578;DHT22;57623;53.608;10.004;2022-08-04T04:59:55;20.60;99.90
1578;DHT22;57623;53.608;10.004;2022-08-04T05:03:14;20.60;99.90
1578;DHT22;57623;53.608;10.004;2022-08-04T05:06:25;20.70;99.90
1578;DHT22;57623;53.608;10.004;2022-08-04T05:09:25;20.70;99.90
1578;DHT22;57623;53.608;10.004;2022-08-04T05:12:52;20.80;99.90
1578;DHT22;57623;53.608;10.004;2022-08-04T05:16:11;20.80;99.90
1578;DHT22;57623;53.608;10.004;2022-08-04T05:19:09;20.90;99.90
1578;DHT22;57623;53.608;10.004;2022-08-04T05:22:05;20.90;99.90
1578;DHT22;57623;53.608;10.004;2022-08-04T05:25:04;21.00;99.90
1578;DHT22;57623;53.608;10.004;2022-08-04T05:27:59;21.10;99.90
1578;DHT22;57623;53.608;10.004;2022-08-04T05:30:52;21.10;99.90
1578;DHT22;57623;53.608;10.004;2022-08-04T05:33:47;21.20;99.90
1578;DHT22;57623;53.608;10.004;2022-08-04T05:36:39;21.20;99.90
1578;DHT22;57623;53.608;10.004;2022-08-04T05:39:32;21.30;99.90
1578;DHT22;57623;53.608;10.004;2022-08-04T05:42:22;21.40;99.90
1578;DHT22;57623;53.608;10.004;2022-08-04T05:45:12;21.40;99.90
1578;DHT22;57623;53.608;10.004;2022-08-04T05:48:01;21.50;99.90
1578;DHT22;57623;53.608;10.004;2022-08-04T05:50:49;21.50;99.90
1578;DHT22;57623;53.608;10.004;2022-08-04T05:53:38;21.60;99.90
1578;DHT22;57623;53.608;10.004;2022-08-04T05:56:32;21.70;99.90
1578;DHT22;57623;53.608;10.004;2022-08-04T05:59:22;21.80;99.90
1578;DHT22;57623;53.608;10.004;2022-08-04T06:02:13;21.80;99.90
1578;DHT22;57623;53.608;10.004;2022-08-04T06:05:04;21.90;99.90
1578;DHT22;57623;53.608;10.004;2022-08-04T06:07:53;22.00;99.90
1578;DHT22;57623;53.608;10.004;2022-08-04T06:11:04;22.00;99.90
1578;DHT22;57623;53.608;10.004;2022-08-04T06:13:56;22.10;99.90
1578;DHT22;57623;53.608;10.004;2022-08-04T06:16:46;22.20;99.90
1578;DHT22;57623;53.608;10.004;2022-08-04T06:19:39;22.30;99.90
1578;DHT22;57623;53.608;10.004;2022-08-04T06:22:51;22.30;99.90
1578;DHT22;57623;53.608;10.004;2022-08-04T06:25:43;22.40;99.90
1578;DHT22;57623;53.608;10.004;2022-08-04T06:28:35;22.50;99.90
1578;DHT22;57623;53.608;10.004;2022-08-04T06:31:26;22.50;99.90
1578;DHT22;57623;53.608;10.004;2022-08-04T06:34:54;22.60;99.90
1578;DHT22;57623;53.608;10.004;2022-08-04T06:37:43;22.60;99.90
1578;DHT22;57623;53.608;10.004;2022-08-04T06:40:32;22.70;99.90
1578;DHT22;57623;53.608;10.004;2022-08-04T06:43:22;22.80;99.90
1578;DHT22;57623;53.608;10.004;2022-08-04T06:46:13;22.80;99.90
1578;DHT22;57623;53.608;10.004;2022-08-04T06:49:03;22.90;99.90
1578;DHT22;57623;53.608;10.004;2022-08-04T06:51:53;23.00;99.90
1578;DHT22;57623;53.608;10.004;2022-08-04T06:54:43;23.10;99.90
1578;DHT22;57623;53.608;10.004;2022-08-04T06:57:34;23.10;99.90
1578;DHT22;57623;53.608;10.004;2022-08-04T07:00:24;23.20;99.90
1578;DHT22;57623;53.608;10.004;2022-08-04T07:03:14;23.30;99.90
1578;DHT22;57623;53.608;10.004;2022-08-04T07:06:04;23.30;99.90
1578;DHT22;57623;53.608;10.004;2022-08-04T07:09:00;23.40;99.90
1578;DHT22;57623;53.608;10.004;2022-08-04T07:11:54;23.50;99.90
1578;DHT22;57623;53.608;10.004;2022-08-04T07:14:46;23.60;99.90
1578;DHT22;57623;53.608;10.004;2022-08-04T07:17:35;23.60;99.90
1578;DHT22;57623;53.608;10.004;2022-08-04T07:20:29;23.70;99.90
1578;DHT22;57623;53.608;10.004;2022-08-04T07:23:27;23.80;99.90
1578;DHT22;57623;53.608;10.004;2022-08-04T07:26:18;24.00;99.90
1578;DHT22;57623;53.608;10.004;2022-08-04T07:29:09;24.00;99.90
1578;DHT22;57623;53.608;10.004;2022-08-04T07:31:59;24.10;99.90
1578;DHT22;57623;53.608;10.004;2022-08-04T07:34:48;24.20;99.90
1578;DHT22;57623;53.608;10.004;2022-08-04T07:37:37;24.30;99.90
1578;DHT22;57623;53.608;10.004;2022-08-04T07:40:27;24.40;99.90
1578;DHT22;57623;53.608;10.004;2022-08-04T07:43:16;24.40;99.90
1578;DHT22;57623;53.608;10.004;2022-08-04T07:46:05;24.50;99.90
1578;DHT22;57623;53.608;10.004;2022-08-04T07:48:53;24.70;99.90
1578;DHT22;57623;53.608;10.004;2022-08-04T07:51:42;24.80;99.90
1578;DHT22;57623;53.608;10.004;2022-08-04T07:54:30;24.90;99.90
1578;DHT22;57623;53.608;10.004;2022-08-04T07:57:21;24.90;99.90
1578;DHT22;57623;53.608;10.004;2022-08-04T08:00:29;25.00;99.90
1578;DHT22;57623;53.608;10.004;2022-08-04T08:03:18;25.20;99.90
1578;DHT22;57623;53.608;10.004;2022-08-04T08:06:08;25.30;99.90
1578;DHT22;57623;53.608;10.004;2022-08-04T08:09:17;25.40;99.90
1578;DHT22;57623;53.608;10.004;2022-08-04T08:12:07;25.50;99.90
1578;DHT22;57623;53.608;10.004;2022-08-04T08:15:19;25.60;99.90
1578;DHT22;57623;53.608;10.004;2022-08-04T08:18:08;25.70;99.90
1578;DHT22;57623;53.608;10.004;2022-08-04T08:20:56;25.80;99.90
1578;DHT22;57623;53.608;10.004;2022-08-04T08:23:45;25.80;99.90
1578;DHT22;57623;53.608;10.004;2022-08-04T08:26:33;25.90;99.90
1578;DHT22;57623;53.608;10.004;2022-08-04T08:29:22;26.10;99.90
1578;DHT22;57623;53.608;10.004;2022-08-04T08:32:13;26.20;99.90
1578;DHT22;57623;53.608;10.004;2022-08-04T08:35:05;26.30;99.90
1578;DHT22;57623;53.608;10.004;2022-08-04T08:37:57;26.50;99.90
1578;DHT22;57623;53.608;10.004;2022-08-04T08:40:52;26.60;99.90
1578;DHT22;57623;53.608;10.004;2022-08-04T08:43:55;26.80;99.90
1578;DHT22;57623;53.608;10.004;2022-08-04T08:47:02;26.90;99.90
1578;DHT22;57623;53.608;10.004;2022-08-04T08:50:27;27.00;99.90
1578;DHT22;57623;53.608;10.004;2022-08-04T08:53:30;27.10;99.90
1578;DHT22;57623;53.608;10.004;2022-08-04T08:56:35;27.20;99.90
1578;DHT22;57623;53.608;10.004;2022-08-04T08:59:47;27.20;99.90
1578;DHT22;57623;53.608;10.004;2022-08-04T09:03:13;27.30;99.90
1578;DHT22;57623;53.608;10.004;2022-08-04T09:06:22;27.40;99.90
1578;DHT22;57623;53.608;10.004;2022-08-04T09:09:40;27.50;99.90
1578;DHT22;57623;53.608;10.004;2022-08-04T09:12:37;27.70;99.90
1578;DHT22;57623;53.608;10.004;2022-08-04T09:15:33;27.80;99.90
1578;DHT22;57623;53.608;10.004;2022-08-04T09:18:25;28.00;99.90
1578;DHT22;57623;53.608;10.004;2022-08-04T09:21:23;28.10;99.90
1578;DHT22;57623;53.608;10.004;2022-08-04T09:24:16;28.30;99.90
1578;DHT22;57623;53.608;10.004;2022-08-04T09:27:25;28.50;99.90
1578;DHT22;57623;53.608;10.004;2022-08-04T09:30:18;28.60;99.90
1578;DHT22;57623;53.608;10.004;2022-08-04T09:33:17;28.80;99.90
1578;DHT22;57623;53.608;10.004;2022-08-04T09:36:34;28.90;99.90
1578;DHT22;57623;53.608;10.004;2022-08-04T09:39:28;29.00;99.90
1578;DHT22;57623;53.608;10.004;2022-08-04T09:42:24;29.20;99.90
1578;DHT22;57623;53.608;10.004;2022-08-04T09:45:23;29.30;99.90
1578;DHT22;57623;53.608;10.004;2022-08-04T09:48:36;29.40;99.90
1578;DHT22;57623;53.608;10.004;2022-08-04T09:51:40;29.50;99.90
1578;DHT22;57623;53.608;10.004;2022-08-04T09:54:50;29.50;99.90
1578;DHT22;57623;53.608;10.004;2022-08-04T09:57:48;29.70;99.90
1578;DHT22;57623;53.608;10.004;2022-08-04T10:00:44;29.70;99.90
1578;DHT22;57623;53.608;10.004;2022-08-04T10:03:37;29.80;99.90
1578;DHT22;57623;53.608;10.004;2022-08-04T10:07:08;29.90;99.90
1578;DHT22;57623;53.608;10.004;2022-08-04T10:10:11;30.00;99.90
1578;DHT22;57623;53.608;10.004;2022-08-04T10:13:17;30.10;99.90
1578;DHT22;57623;53.608;10.004;2022-08-04T10:16:22;30.20;99.90
1578;DHT22;57623;53.608;10.004;2022-08-04T10:19:24;30.30;99.90
1578;DHT22;57623;53.608;10.004;2022-08-04T10:22:18;30.50;99.90
1578;DHT22;57623;53.608;10.004;2022-08-04T10:28:57;30.70;99.90
1578;DHT22;57623;53.608;10.004;2022-08-04T10:31:59;30.80;99.90
1578;DHT22;57623;53.608;10.004;2022-08-04T10:35:00;30.90;99.90
1578;DHT22;57623;53.608;10.004;2022-08-04T10:38:00;30.90;99.90
1578;DHT22;57623;53.608;10.004;2022-08-04T10:40:57;31.00;99.90
1578;DHT22;57623;53.608;10.004;2022-08-04T10:43:50;31.00;99.90
1578;DHT22;57623;53.608;10.004;2022-08-04T10:46:46;31.00;99.90
1578;DHT22;57623;53.608;10.004;2022-08-04T10:49:42;31.00;99.90
1578;DHT22;57623;53.608;10.004;2022-08-04T10:52:34;31.10;99.90
1578;DHT22;57623;53.608;10.004;2022-08-04T10:55:32;31.20;99.90
1578;DHT22;57623;53.608;10.004;2022-08-04T10:58:48;31.20;99.90
1578;DHT22;57623;53.608;10.004;2022-08-04T11:01:44;31.30;99.90
1578;DHT22;57623;53.608;10.004;2022-08-04T11:04:58;31.40;99.90
1578;DHT22;57623;53.608;10.004;2022-08-04T11:07:50;31.50;99.90
1578;DHT22;57623;53.608;10.004;2022-08-04T11:10:44;31.60;99.90
1578;DHT22;57623;53.608;10.004;2022-08-04T11:13:39;31.70;99.90
1578;DHT22;57623;53.608;10.004;2022-08-04T11:16:38;31.80;99.90
1578;DHT22;57623;53.608;10.004;2022-08-04T11:19:31;31.90;99.90
1578;DHT22;57623;53.608;10.004;2022-08-04T11:22:38;32.10;99.90
1578;DHT22;57623;53.608;10.004;2022-08-04T11:25:32;32.20;99.90
1578;DHT22;57623;53.608;10.004;2022-08-04T11:28:36;32.30;99.90
1578;DHT22;57623;53.608;10.004;2022-08-04T11:31:29;32.40;99.90
1578;DHT22;57623;53.608;10.004;2022-08-04T11:34:19;32.40;99.90
1578;DHT22;57623;53.608;10.004;2022-08-04T11:37:10;32.50;99.90
1578;DHT22;57623;53.608;10.004;2022-08-04T11:40:08;32.60;99.90
1578;DHT22;57623;53.608;10.004;2022-08-04T11:43:01;32.70;99.90
1578;DHT22;57623;53.608;10.004;2022-08-04T11:45:57;32.70;99.90
1578;DHT22;57623;53.608;10.004;2022-08-04T11:48:54;32.80;99.90
1578;DHT22;57623;53.608;10.004;2022-08-04T11:51:43;32.90;99.90
1578;DHT22;57623;53.608;10.004;2022-08-04T11:54:33;33.00;99.90
1578;DHT22;57623;53.608;10.004;2022-08-04T11:57:22;33.00;99.90
1578;DHT22;57623;53.608;10.004;2022-08-04T12:00:30;33.00;99.90
1578;DHT22;57623;53.608;10.004;2022-08-04T12:03:33;33.10;99.90
1578;DHT22;57623;53.608;10.004;2022-08-04T12:06:28;33.20;99.90
1578;DHT22;57623;53.608;10.004;2022-08-04T12:09:26;33.20;99.90
1578;DHT22;57623;53.608;10.004;2022-08-04T12:12:20;33.20;99.80
1578;DHT22;57623;53.608;10.004;2022-08-04T12:15:19;33.20;98.90
1578;DHT22;57623;53.608;10.004;2022-08-04T12:18:16;33.20;96.80
1578;DHT22;57623;53.608;10.004;2022-08-04T12:21:11;33.30;95.60
1578;DHT22;57623;53.608;10.004;2022-08-04T12:24:04;33.40;95.10
1578;DHT22;57623;53.608;10.004;2022-08-04T12:27:03;33.50;93.90
1578;DHT22;57623;53.608;10.004;2022-08-04T12:29:54;33.50;93.50
1578;DHT22;57623;53.608;10.004;2022-08-04T12:33:06;33.60;94.70
1578;DHT22;57623;53.608;10.004;2022-08-04T12:36:14;33.70;94.30
1578;DHT22;57623;53.608;10.004;2022-08-04T12:39:11;33.90;93.30
1578;DHT22;57623;53.608;10.004;2022-08-04T12:42:10;34.00;93.60
1578;DHT22;57623;53.608;10.004;2022-08-04T12:45:08;34.00;94.80
1578;DHT22;57623;53.608;10.004;2022-08-04T12:47:58;34.10;92.90
1578;DHT22;57623;53.608;10.004;2022-08-04T12:50:49;34.10;92.00
1578;DHT22;57623;53.608;10.004;2022-08-04T12:53:42;34.30;92.10
1578;DHT22;57623;53.608;10.004;2022-08-04T12:56:38;34.50;91.00
1578;DHT22;57623;53.608;10.004;2022-08-04T12:59:26;34.70;91.80
1578;DHT22;57623;53.608;10.004;2022-08-04T13:02:17;34.80;91.50
1578;DHT22;57623;53.608;10.004;2022-08-04T13:05:13;35.00;91.00
1578;DHT22;57623;53.608;10.004;2022-08-04T13:08:04;35.20;90.30
1578;DHT22;57623;53.608;10.004;2022-08-04T13:10:57;35.20;88.20
1578;DHT22;57623;53.608;10.004;2022-08-04T13:13:52;35.20;88.30
1578;DHT22;57623;53.608;10.004;2022-08-04T13:17:01;35.10;87.50
1578;DHT22;57623;53.608;10.004;2022-08-04T13:19:50;35.00;88.40
1578;DHT22;57623;53.608;10.004;2022-08-04T13:22:42;35.00;87.20
1578;DHT22;57623;53.608;10.004;2022-08-04T13:25:34;34.90;88.70
1578;DHT22;57623;53.608;10.004;2022-08-04T13:28:48;34.80;89.20
1578;DHT22;57623;53.608;10.004;2022-08-04T13:31:42;34.80;92.00
1578;DHT22;57623;53.608;10.004;2022-08-04T13:34:40;34.80;91.50
1578;DHT22;57623;53.608;10.004;2022-08-04T13:37:38;34.80;91.50
1578;DHT22;57623;53.608;10.004;2022-08-04T13:40:28;35.00;90.20
1578;DHT22;57623;53.608;10.004;2022-08-04T13:43:23;35.00;92.70
1578;DHT22;57623;53.608;10.004;2022-08-04T13:46:37;35.10;91.90
1578;DHT22;57623;53.608;10.004;2022-08-04T13:49:30;35.20;90.00
1578;DHT22;57623;53.608;10.004;2022-08-04T13:52:39;35.40;88.20
1578;DHT22;57623;53.608;10.004;2022-08-04T13:55:29;35.60;90.80
1578;DHT22;57623;53.608;10.004;2022-08-04T13:58:20;35.70;88.60
1578;DHT22;57623;53.608;10.004;2022-08-04T14:01:12;35.80;87.30
1578;DHT22;57623;53.608;10.004;2022-08-04T14:04:08;35.80;87.80
1578;DHT22;57623;53.608;10.004;2022-08-04T14:07:03;35.90;88.00
1578;DHT22;57623;53.608;10.004;2022-08-04T14:10:09;35.90;87.90
1578;DHT22;57623;53.608;10.004;2022-08-04T14:12:57;36.00;90.40
1578;DHT22;57623;53.608;10.004;2022-08-04T14:15:46;36.10;87.50
1578;DHT22;57623;53.608;10.004;2022-08-04T14:18:57;36.30;89.10
1578;DHT22;57623;53.608;10.004;2022-08-04T14:21:49;36.60;87.90
1578;DHT22;57623;53.608;10.004;2022-08-04T14:24:40;37.20;86.50
1578;DHT22;57623;53.608;10.004;2022-08-04T14:27:30;37.80;85.20
1578;DHT22;57623;53.608;10.004;2022-08-04T14:30:29;38.10;84.50
1578;DHT22;57623;53.608;10.004;2022-08-04T14:33:19;38.20;87.50
1578;DHT22;57623;53.608;10.004;2022-08-04T14:39:50;38.40;82.70
1578;DHT22;57623;53.608;10.004;2022-08-04T14:43:01;38.50;80.10
1578;DHT22;57623;53.608;10.004;2022-08-04T14:46:02;38.00;83.00
1578;DHT22;57623;53.608;10.004;2022-08-04T14:49:03;37.80;87.20
1578;DHT22;57623;53.608;10.004;2022-08-04T14:51:57;37.10;90.20
1578;DHT22;57623;53.608;10.004;2022-08-04T14:54:48;36.60;92.10
1578;DHT22;57623;53.608;10.004;2022-08-04T14:57:37;36.40;93.90
1578;DHT22;57623;53.608;10.004;2022-08-04T15:00:50;36.00;95.20
1578;DHT22;57623;53.608;10.004;2022-08-04T15:03:41;35.20;98.10
1578;DHT22;57623;53.608;10.004;2022-08-04T15:06:38;35.10;99.90
1578;DHT22;57623;53.608;10.004;2022-08-04T15:09:30;34.60;99.90
1578;DHT22;57623;53.608;10.004;2022-08-04T15:12:23;34.20;99.90
1578;DHT22;57623;53.608;10.004;2022-08-04T15:15:11;33.80;99.90
1578;DHT22;57623;53.608;10.004;2022-08-04T15:18:20;33.50;99.90
1578;DHT22;57623;53.608;10.004;2022-08-04T15:21:09;33.30;99.90
1578;DHT22;57623;53.608;10.004;2022-08-04T15:23:59;32.90;99.90
1578;DHT22;57623;53.608;10.004;2022-08-04T15:26:49;32.50;99.90
1578;DHT22;57623;53.608;10.004;2022-08-04T15:29:43;32.30;99.90
1578;DHT22;57623;53.608;10.004;2022-08-04T15:32:50;31.90;99.90
1578;DHT22;57623;53.608;10.004;2022-08-04T15:35:40;31.80;99.90
1578;DHT22;57623;53.608;10.004;2022-08-04T15:38:49;31.50;99.90
1578;DHT22;57623;53.608;10.004;2022-08-04T15:41:51;31.20;99.90
1578;DHT22;57623;53.608;10.004;2022-08-04T15:45:02;30.90;99.90
1578;DHT22;57623;53.608;10.004;2022-08-04T15:51:24;30.20;99.90
1578;DHT22;57623;53.608;10.004;2022-08-04T15:54:21;30.00;99.90
1578;DHT22;57623;53.608;10.004;2022-08-04T15:57:56;29.70;99.90
1578;DHT22;57623;53.608;10.004;2022-08-04T16:01:15;29.30;99.90
1578;DHT22;57623;53.608;10.004;2022-08-04T16:04:19;29.00;99.90
1578;DHT22;57623;53.608;10.004;2022-08-04T16:07:07;28.90;99.90
1578;DHT22;57623;53.608;10.004;2022-08-04T16:10:34;28.50;99.90
1578;DHT22;57623;53.608;10.004;2022-08-04T16:13:23;28.20;99.90
1578;DHT22;57623;53.608;10.004;2022-08-04T16:16:27;27.90;99.90
1578;DHT22;57623;53.608;10.004;2022-08-04T16:19:33;27.70;99.90
1578;DHT22;57623;53.608;10.004;2022-08-04T16:22:38;27.60;99.90
1578;DHT22;57623;53.608;10.004;2022-08-04T16:25:41;27.40;99.90
1578;DHT22;57623;53.608;10.004;2022-08-04T16:28:36;27.20;99.90
1578;DHT22;57623;53.608;10.004;2022-08-04T16:31:24;27.20;99.90
1578;DHT22;57623;53.608;10.004;2022-08-04T16:34:17;27.10;99.90
1578;DHT22;57623;53.608;10.004;2022-08-04T16:37:31;27.00;99.90
1578;DHT22;57623;53.608;10.004;2022-08-04T16:40:31;26.90;99.90
1578;DHT22;57623;53.608;10.004;2022-08-04T16:43:29;26.60;99.90
1578;DHT22;57623;53.608;10.004;2022-08-04T16:46:39;26.70;99.90
1578;DHT22;57623;53.608;10.004;2022-08-04T16:50:00;26.50;99.90
1578;DHT22;57623;53.608;10.004;2022-08-04T16:52:50;26.30;99.90
1578;DHT22;57623;53.608;10.004;2022-08-04T16:55:45;26.20;99.90
1578;DHT22;57623;53.608;10.004;2022-08-04T16:58:34;26.20;99.90
1578;DHT22;57623;53.608;10.004;2022-08-04T17:01:29;26.10;99.90
1578;DHT22;57623;53.608;10.004;2022-08-04T17:04:27;26.00;99.90
1578;DHT22;57623;53.608;10.004;2022-08-04T17:07:17;25.90;99.90
1578;DHT22;57623;53.608;10.004;2022-08-04T17:10:06;25.90;99.90
1578;DHT22;57623;53.608;10.004;2022-08-04T17:12:54;25.80;99.90
1578;DHT22;57623;53.608;10.004;2022-08-04T17:16:05;25.80;99.90
1578;DHT22;57623;53.608;10.004;2022-08-04T17:18:59;25.70;99.90
1578;DHT22;57623;53.608;10.004;2022-08-04T17:21:48;25.70;99.90
1578;DHT22;57623;53.608;10.004;2022-08-04T17:24:38;25.70;99.90
1578;DHT22;57623;53.608;10.004;2022-08-04T17:27:27;25.50;99.90
1578;DHT22;57623;53.608;10.004;2022-08-04T17:30:35;25.50;99.90
1578;DHT22;57623;53.608;10.004;2022-08-04T17:33:35;25.50;99.90
1578;DHT22;57623;53.608;10.004;2022-08-04T17:36:42;25.40;99.90
1578;DHT22;57623;53.608;10.004;2022-08-04T17:39:31;25.40;99.90
1578;DHT22;57623;53.608;10.004;2022-08-04T17:42:29;25.30;99.90
1578;DHT22;57623;53.608;10.004;2022-08-04T17:45:20;25.20;99.90
1578;DHT22;57623;53.608;10.004;2022-08-04T17:48:29;25.10;99.90
1578;DHT22;57623;53.608;10.004;2022-08-04T17:51:18;25.20;99.90
1578;DHT22;57623;53.608;10.004;2022-08-04T17:54:31;25.20;99.90
1578;DHT22;57623;53.608;10.004;2022-08-04T17:57:24;25.20;99.90
1578;DHT22;57623;53.608;10.004;2022-08-04T18:00:15;25.20;99.90
1578;DHT22;57623;53.608;10.004;2022-08-04T18:03:05;25.10;99.90
1578;DHT22;57623;53.608;10.004;2022-08-04T18:06:10;25.00;99.90
1578;DHT22;57623;53.608;10.004;2022-08-04T18:08:59;25.00;99.90
1578;DHT22;57623;53.608;10.004;2022-08-04T18:12:10;24.90;99.90
1578;DHT22;57623;53.608;10.004;2022-08-04T18:15:02;24.90;99.90
1578;DHT22;57623;53.608;10.004;2022-08-04T18:17:53;24.80;99.90
1578;DHT22;57623;53.608;10.004;2022-08-04T18:21:01;24.80;99.90
1578;DHT22;57623;53.608;10.004;2022-08-04T18:23:51;24.80;99.90
1578;DHT22;57623;53.608;10.004;2022-08-04T18:26:46;24.70;99.90
1578;DHT22;57623;53.608;10.004;2022-08-04T18:29:37;24.70;99.90
1578;DHT22;57623;53.608;10.004;2022-08-04T18:32:46;24.70;99.90
1578;DHT22;57623;53.608;10.004;2022-08-04T18:35:56;24.60;99.90
1578;DHT22;57623;53.608;10.004;2022-08-04T18:39:05;24.60;99.90
1578;DHT22;57623;53.608;10.004;2022-08-04T18:42:01;24.60;99.90
1578;DHT22;57623;53.608;10.004;2022-08-04T18:44:50;24.50;99.90
1578;DHT22;57623;53.608;10.004;2022-08-04T18:47:39;24.40;99.90
1578;DHT22;57623;53.608;10.004;2022-08-04T18:50:45;24.30;99.90
1578;DHT22;57623;53.608;10.004;2022-08-04T18:53:55;24.30;99.90
1578;DHT22;57623;53.608;10.004;2022-08-04T18:56:45;24.30;99.90
1578;DHT22;57623;53.608;10.004;2022-08-04T18:59:53;24.20;99.90
1578;DHT22;57623;53.608;10.004;2022-08-04T19:02:42;24.20;99.90
1578;DHT22;57623;53.608;10.004;2022-08-04T19:05:31;24.20;99.90
1578;DHT22;57623;53.608;10.004;2022-08-04T19:08:28;24.10;99.90
1578;DHT22;57623;53.608;10.004;2022-08-04T19:11:22;24.00;99.90
1578;DHT22;57623;53.608;10.004;2022-08-04T19:14:31;24.00;99.90
1578;DHT22;57623;53.608;10.004;2022-08-04T19:17:19;24.00;99.90